Time;durP1;ratioP1;P1;durP2;ratioP2;P2;SDS_P1;SDS_P2;PMS_P1;PMS_P2;Temp;Humidity;BMP_temperature;BMP_pressure;BME280_temperature;BME280_humidity;BME280_pressure;Samples;Min_cycle;Max_cycle;Signal;HPM_P1;HPM_P2
2024/03/06 00:02:01;;;;;;;0.52;0.32;;;8.50;99.90;;;;;;4975905;28;20053;-81
2024/03/06 00:04:26;;;;;;;2.30;0.55;;;8.50;99.90;;;;;;4974747;28;20031;-81
2024/03/06 00:06:53;;;;;;;2.13;0.45;;;8.50;99.90;;;;;;4976677;28;20107;-81
2024/03/06 00:09:19;;;;;;;2.95;0.60;;;8.50;99.90;;;;;;4976319;28;20049;-83
2024/03/06 00:11:45;;;;;;;5.45;1.10;;;8.40;99.90;;;;;;4977872;28;20054;-83
2024/03/06 00:14:12;;;;;;;4.07;1.77;;;8.50;99.90;;;;;;4979986;28;20038;-83
2024/03/06 00:16:38;;;;;;;6.07;2.25;;;8.50;99.90;;;;;;4981704;28;20030;-83
2024/03/06 00:19:04;;;;;;;3.88;1.58;;;8.50;99.90;;;;;;4980183;28;20042;-81
2024/03/06 00:21:30;;;;;;;3.88;1.75;;;8.50;99.90;;;;;;4983400;28;20064;-80
2024/03/06 00:23:55;;;;;;;2.83;1.55;;;8.50;99.90;;;;;;4983463;28;20038;-83
2024/03/06 00:26:21;;;;;;;6.30;1.98;;;8.50;99.90;;;;;;4982842;28;20097;-82
2024/03/06 00:28:47;;;;;;;5.38;2.28;;;8.50;99.90;;;;;;4982431;28;20037;-81
2024/03/06 00:31:13;;;;;;;5.68;2.47;;;8.40;99.90;;;;;;4981979;28;20038;-81
2024/03/06 00:33:40;;;;;;;6.80;3.10;;;8.40;99.90;;;;;;4983444;28;20037;-80
2024/03/06 00:36:06;;;;;;;4.45;2.63;;;8.30;99.90;;;;;;4983951;28;20090;-80
2024/03/06 00:38:32;;;;;;;4.97;2.80;;;8.30;99.90;;;;;;4982712;28;20085;-81
2024/03/06 00:40:57;;;;;;;5.25;3.28;;;8.20;99.90;;;;;;4982983;28;20307;-81
2024/03/06 00:43:23;;;;;;;3.90;2.40;;;8.20;99.90;;;;;;4982280;28;20041;-81
2024/03/06 00:45:49;;;;;;;5.05;2.50;;;8.30;99.90;;;;;;4983308;28;20042;-81
2024/03/06 00:48:15;;;;;;;5.50;2.75;;;8.10;99.90;;;;;;4981362;28;20105;-81
2024/03/06 00:50:41;;;;;;;3.65;2.40;;;8.00;99.90;;;;;;4981532;28;20480;-80
2024/03/06 00:53:06;;;;;;;5.90;2.60;;;8.00;99.90;;;;;;4982750;28;20057;-83
2024/03/06 00:55:32;;;;;;;3.72;2.35;;;8.00;99.90;;;;;;4979374;28;20099;-82
2024/03/06 00:57:58;;;;;;;3.92;1.88;;;8.00;99.90;;;;;;4980568;28;20042;-83
2024/03/06 01:00:23;;;;;;;5.45;1.67;;;8.00;99.90;;;;;;4982026;28;20527;-83
2024/03/06 01:02:49;;;;;;;4.05;2.35;;;7.90;99.90;;;;;;4981400;28;20057;-82
2024/03/06 01:05:15;;;;;;;3.05;1.67;;;7.90;99.90;;;;;;4982401;28;20073;-83
2024/03/06 01:07:41;;;;;;;3.58;2.22;;;8.00;99.90;;;;;;4980274;28;20148;-83
2024/03/06 01:10:08;;;;;;;3.20;1.88;;;7.90;99.90;;;;;;4981771;28;20734;-83
2024/03/06 01:12:33;;;;;;;2.85;1.83;;;7.80;99.90;;;;;;4980687;28;20026;-83
2024/03/06 01:15:00;;;;;;;4.18;2.30;;;7.80;99.90;;;;;;4981641;28;20061;-83
2024/03/06 01:17:26;;;;;;;5.15;3.20;;;7.80;99.90;;;;;;4980888;28;20030;-83
2024/03/06 01:19:52;;;;;;;4.80;2.50;;;7.80;99.90;;;;;;4977311;28;20057;-82
2024/03/06 01:22:18;;;;;;;6.70;3.13;;;7.70;99.90;;;;;;4980907;28;20437;-83
2024/03/06 01:24:44;;;;;;;3.15;1.88;;;7.70;99.90;;;;;;4977883;28;20034;-83
2024/03/06 01:27:10;;;;;;;4.03;1.85;;;7.70;99.90;;;;;;4981152;28;20030;-83
2024/03/06 01:29:36;;;;;;;3.88;1.92;;;7.60;99.90;;;;;;4980455;28;20057;-83
2024/03/06 01:32:02;;;;;;;2.40;1.55;;;7.60;99.90;;;;;;4982195;28;21185;-82
2024/03/06 01:34:28;;;;;;;4.13;2.10;;;7.60;99.90;;;;;;4981302;28;20034;-82
2024/03/06 01:36:53;;;;;;;4.43;2.28;;;7.60;99.90;;;;;;4980981;28;20038;-82
2024/03/06 01:39:19;;;;;;;3.75;1.95;;;7.60;99.90;;;;;;4980012;28;20764;-82
2024/03/06 01:41:50;;;;;;;3.03;1.55;;;7.50;99.90;;;;;;4980651;28;20081;-82
2024/03/06 01:44:17;;;;;;;3.35;1.48;;;7.40;99.90;;;;;;4981723;28;20034;-83
2024/03/06 01:46:44;;;;;;;2.83;1.45;;;7.40;99.90;;;;;;4981719;28;20036;-82
2024/03/06 01:49:13;;;;;;;3.28;0.88;;;7.40;99.90;;;;;;4975080;28;20074;-82
2024/03/06 01:51:40;;;;;;;2.92;1.50;;;7.40;99.90;;;;;;4980317;28;20031;-83
2024/03/06 01:54:06;;;;;;;3.15;1.10;;;7.30;99.90;;;;;;4979910;28;20049;-82
2024/03/06 01:56:34;;;;;;;1.67;0.85;;;7.40;99.90;;;;;;4975706;28;20042;-82
2024/03/06 01:59:00;;;;;;;1.55;0.90;;;7.40;99.90;;;;;;4978639;28;20030;-82
2024/03/06 02:01:26;;;;;;;1.48;0.88;;;7.30;99.90;;;;;;4980010;28;20132;-82
2024/03/06 02:03:53;;;;;;;1.27;0.80;;;7.30;99.90;;;;;;4980849;28;20048;-83
2024/03/06 02:06:19;;;;;;;1.38;0.80;;;7.20;99.90;;;;;;4981865;28;20030;-83
2024/03/06 02:08:48;;;;;;;1.48;0.60;;;7.20;99.90;;;;;;4980526;28;20027;-82
2024/03/06 02:11:16;;;;;;;1.58;0.32;;;7.10;99.90;;;;;;4980226;28;20058;-82
2024/03/06 02:13:43;;;;;;;1.60;0.47;;;7.10;99.90;;;;;;4977538;28;20366;-82
2024/03/06 02:16:10;;;;;;;1.63;0.75;;;7.20;99.90;;;;;;4979201;28;20031;-83
2024/03/06 02:18:36;;;;;;;1.90;0.47;;;7.20;99.90;;;;;;4979878;28;20042;-82
2024/03/06 02:21:02;;;;;;;0.40;0.30;;;7.20;99.90;;;;;;4979233;28;20168;-82
2024/03/06 02:23:28;;;;;;;0.30;0.30;;;7.10;99.90;;;;;;4980351;28;20041;-82
2024/03/06 02:25:54;;;;;;;0.30;0.25;;;6.90;99.90;;;;;;4978948;28;20044;-82
2024/03/06 02:28:19;;;;;;;1.17;0.45;;;6.90;99.90;;;;;;4979073;28;20415;-82
2024/03/06 02:30:49;;;;;;;1.42;0.40;;;6.90;99.90;;;;;;4980256;28;20081;-82
2024/03/06 02:33:15;;;;;;;1.48;0.32;;;6.90;99.90;;;;;;4978023;28;20093;-82
2024/03/06 02:35:40;;;;;;;2.42;0.30;;;7.00;99.90;;;;;;4979613;28;20035;-83
2024/03/06 02:38:06;;;;;;;1.02;0.50;;;6.90;99.90;;;;;;4978101;28;20042;-82
2024/03/06 02:40:32;;;;;;;0.70;0.28;;;6.90;99.90;;;;;;4979820;28;20034;-82
2024/03/06 02:42:58;;;;;;;0.47;0.22;;;6.90;99.90;;;;;;4979396;28;20534;-82
2024/03/06 02:45:23;;;;;;;0.10;0.10;;;6.90;99.90;;;;;;4979574;28;20181;-82
2024/03/06 02:47:49;;;;;;;0.47;0.20;;;6.80;99.90;;;;;;4978623;28;20073;-82
2024/03/06 02:50:15;;;;;;;0.85;0.30;;;6.80;99.90;;;;;;4977817;28;20477;-82
2024/03/06 02:52:41;;;;;;;1.63;0.17;;;6.90;99.90;;;;;;4978720;28;20152;-82
2024/03/06 02:55:07;;;;;;;0.40;0.30;;;6.90;99.90;;;;;;4979844;28;20452;-82
2024/03/06 02:57:33;;;;;;;0.35;0.13;;;7.00;99.90;;;;;;4979079;28;20038;-82
2024/03/06 02:59:59;;;;;;;0.20;0.15;;;7.00;99.90;;;;;;4978607;28;20042;-82
2024/03/06 03:02:25;;;;;;;0.40;0.30;;;7.00;99.90;;;;;;4978801;28;20053;-82
2024/03/06 03:04:52;;;;;;;0.47;0.10;;;7.00;99.90;;;;;;4980209;28;20112;-82
2024/03/06 03:07:19;;;;;;;1.05;0.30;;;6.80;99.90;;;;;;4979577;28;20575;-81
2024/03/06 03:09:45;;;;;;;2.58;0.20;;;6.80;99.90;;;;;;4979512;28;20096;-82
2024/03/06 03:12:11;;;;;;;1.15;0.20;;;6.80;99.90;;;;;;4978782;28;20505;-82
2024/03/06 03:14:37;;;;;;;0.65;0.25;;;6.70;99.90;;;;;;4980002;28;20090;-82
2024/03/06 03:17:05;;;;;;;0.47;0.20;;;6.70;99.90;;;;;;4979593;28;20030;-82
2024/03/06 03:19:31;;;;;;;0.45;0.10;;;6.70;99.90;;;;;;4978635;28;20030;-82
2024/03/06 03:21:57;;;;;;;0.35;0.13;;;6.70;99.90;;;;;;4979359;28;20049;-82
2024/03/06 03:24:25;;;;;;;0.20;0.00;;;6.80;99.90;;;;;;4979225;28;20031;-82
2024/03/06 03:26:52;;;;;;;0.55;0.20;;;6.80;99.90;;;;;;4979359;28;20423;-82
2024/03/06 03:29:18;;;;;;;0.22;0.10;;;6.70;99.90;;;;;;4979040;28;20042;-82
2024/03/06 03:31:44;;;;;;;0.10;0.08;;;6.60;99.90;;;;;;4981464;28;20042;-82
2024/03/06 03:34:10;;;;;;;0.65;0.20;;;6.70;99.90;;;;;;4982453;28;20081;-82
2024/03/06 03:36:42;;;;;;;0.47;0.38;;;6.80;99.90;;;;;;4983105;28;20040;-82
2024/03/06 03:39:16;;;;;;;0.25;0.10;;;6.80;99.90;;;;;;4982216;28;20048;-82
2024/03/06 03:41:46;;;;;;;0.00;0.00;;;6.80;99.90;;;;;;4982327;28;20038;-82
2024/03/06 03:44:13;;;;;;;0.60;0.20;;;6.80;99.90;;;;;;4982356;28;20611;-82
2024/03/06 03:46:39;;;;;;;2.00;0.35;;;6.80;99.90;;;;;;4980337;28;20100;-82
2024/03/06 03:49:04;;;;;;;0.47;0.10;;;6.70;99.90;;;;;;4979534;28;20046;-83
2024/03/06 03:51:30;;;;;;;0.30;0.10;;;6.60;99.90;;;;;;4982293;28;20057;-82
2024/03/06 03:53:56;;;;;;;1.02;0.28;;;6.70;99.90;;;;;;4982527;28;20026;-82
2024/03/06 03:56:21;;;;;;;0.47;0.10;;;6.90;99.90;;;;;;4982598;28;20128;-82
2024/03/06 03:58:47;;;;;;;0.45;0.10;;;6.90;99.90;;;;;;4981572;28;20027;-82
2024/03/06 04:01:13;;;;;;;0.15;0.10;;;6.70;99.90;;;;;;4982253;28;20068;-82
2024/03/06 04:03:40;;;;;;;3.63;1.42;;;6.80;99.90;;;;;;4979554;28;20122;-82
2024/03/06 04:06:07;;;;;;;0.20;0.03;;;6.80;99.90;;;;;;4979528;28;20041;-82
2024/03/06 04:08:32;;;;;;;0.63;0.20;;;6.90;99.90;;;;;;4977413;28;20045;-82
2024/03/06 04:10:58;;;;;;;0.43;0.10;;;6.90;99.90;;;;;;4979241;28;20058;-83
2024/03/06 04:13:24;;;;;;;0.52;0.10;;;6.80;99.90;;;;;;4979575;28;20034;-82
2024/03/06 04:15:49;;;;;;;0.57;0.20;;;6.70;99.90;;;;;;4978833;28;20532;-82
2024/03/06 04:18:15;;;;;;;0.68;0.20;;;6.60;99.90;;;;;;4975448;28;21067;-86
2024/03/06 04:20:41;;;;;;;2.72;0.40;;;6.60;99.90;;;;;;4977293;28;20136;-84
2024/03/06 04:23:06;;;;;;;0.75;0.10;;;6.60;99.90;;;;;;4976793;28;20117;-82
2024/03/06 04:25:35;;;;;;;0.43;0.10;;;6.50;99.90;;;;;;4979330;28;20476;-80
2024/03/06 04:28:02;;;;;;;0.30;0.20;;;6.50;99.90;;;;;;4977848;28;20157;-80
2024/03/06 04:30:28;;;;;;;1.40;0.35;;;6.60;99.90;;;;;;4974253;28;20046;-81
2024/03/06 04:32:53;;;;;;;0.10;0.10;;;6.60;99.90;;;;;;4973436;28;20070;-82
2024/03/06 04:35:19;;;;;;;0.00;0.00;;;6.50;99.90;;;;;;4974954;28;20041;-83
2024/03/06 04:37:45;;;;;;;0.73;0.20;;;6.60;99.90;;;;;;4971728;28;20484;-81
2024/03/06 04:40:11;;;;;;;0.28;0.20;;;6.40;99.90;;;;;;4975949;28;20042;-81
2024/03/06 04:42:37;;;;;;;0.80;0.17;;;6.40;99.90;;;;;;4972991;28;20022;-81
2024/03/06 04:45:12;;;;;;;0.43;0.22;;;6.30;99.90;;;;;;4975035;28;20613;-82
2024/03/06 04:47:38;;;;;;;0.63;0.25;;;6.40;99.90;;;;;;4977984;28;20034;-80
2024/03/06 04:50:07;;;;;;;1.08;0.20;;;6.50;99.90;;;;;;4979270;28;20096;-81
2024/03/06 04:52:34;;;;;;;0.60;0.30;;;6.50;99.90;;;;;;4978972;28;20022;-84
2024/03/06 04:55:00;;;;;;;1.45;0.20;;;6.50;99.90;;;;;;4972314;28;20046;-81
2024/03/06 04:57:26;;;;;;;0.30;0.10;;;6.50;99.90;;;;;;4975798;28;20531;-80
2024/03/06 04:59:52;;;;;;;0.77;0.10;;;6.40;99.90;;;;;;4975634;28;20397;-83
2024/03/06 05:02:18;;;;;;;0.10;0.10;;;6.30;99.90;;;;;;4976691;28;20046;-83
2024/03/06 05:04:43;;;;;;;0.40;0.13;;;6.50;99.90;;;;;;4974586;28;20065;-82
2024/03/06 05:07:09;;;;;;;0.75;0.20;;;6.60;99.90;;;;;;4975829;28;20074;-82
2024/03/06 05:09:35;;;;;;;0.40;0.20;;;6.50;99.90;;;;;;4975816;28;20042;-83
2024/03/06 05:12:01;;;;;;;0.57;0.20;;;6.60;99.90;;;;;;4975798;28;20089;-82
2024/03/06 05:14:26;;;;;;;0.05;0.05;;;6.70;99.90;;;;;;4973844;28;20525;-83
2024/03/06 05:16:53;;;;;;;0.30;0.20;;;6.50;99.90;;;;;;4975857;28;20491;-83
2024/03/06 05:19:18;;;;;;;0.45;0.20;;;6.30;99.90;;;;;;4976660;28;20129;-83
2024/03/06 05:21:44;;;;;;;0.13;0.05;;;6.30;99.90;;;;;;4975247;28;20104;-83
2024/03/06 05:24:10;;;;;;;0.60;0.28;;;6.30;99.90;;;;;;4975636;28;20185;-83
2024/03/06 05:26:35;;;;;;;2.30;0.30;;;6.40;99.90;;;;;;4972931;28;20046;-83
2024/03/06 05:29:01;;;;;;;0.95;0.30;;;6.40;99.90;;;;;;4976158;28;20038;-82
2024/03/06 05:31:26;;;;;;;0.47;0.10;;;6.30;99.90;;;;;;4975446;28;20045;-83
2024/03/06 05:33:52;;;;;;;0.30;0.20;;;6.40;99.90;;;;;;4975993;28;20045;-82
2024/03/06 05:36:18;;;;;;;0.38;0.20;;;6.40;99.90;;;;;;4975303;28;20520;-82
2024/03/06 05:38:48;;;;;;;0.10;0.10;;;6.50;99.90;;;;;;4974307;28;20509;-81
2024/03/06 05:41:14;;;;;;;1.15;0.15;;;6.50;99.90;;;;;;4975719;28;20050;-81
2024/03/06 05:43:40;;;;;;;2.00;1.05;;;6.40;99.90;;;;;;4976374;28;20085;-83
2024/03/06 05:46:06;;;;;;;2.40;0.88;;;6.50;99.90;;;;;;4975406;28;21413;-82
2024/03/06 05:48:33;;;;;;;1.13;0.52;;;6.50;99.90;;;;;;4976052;28;21254;-83
2024/03/06 05:50:59;;;;;;;8.50;0.88;;;6.50;99.90;;;;;;4971507;28;20110;-82
2024/03/06 05:53:25;;;;;;;2.30;0.30;;;6.60;99.90;;;;;;4971562;28;20042;-84
2024/03/06 05:55:51;;;;;;;0.77;0.30;;;6.70;99.90;;;;;;4968198;28;20038;-82
2024/03/06 05:58:17;;;;;;;0.60;0.22;;;6.50;99.90;;;;;;4975361;28;20440;-83
2024/03/06 06:00:46;;;;;;;0.35;0.10;;;6.40;99.90;;;;;;4976157;28;20038;-83
2024/03/06 06:03:11;;;;;;;1.13;0.55;;;6.30;99.90;;;;;;4975550;28;20034;-82
2024/03/06 06:05:39;;;;;;;1.30;0.60;;;6.40;99.90;;;;;;4974866;28;20697;-82
2024/03/06 06:08:05;;;;;;;1.90;0.52;;;6.40;99.90;;;;;;4975776;28;20470;-82
2024/03/06 06:10:31;;;;;;;0.73;0.40;;;6.50;99.90;;;;;;4969175;28;20054;-83
2024/03/06 06:12:57;;;;;;;3.70;0.60;;;6.50;99.90;;;;;;4974511;28;20125;-83
2024/03/06 06:15:22;;;;;;;1.98;0.65;;;6.60;99.90;;;;;;4963701;28;20188;-83
2024/03/06 06:17:48;;;;;;;1.77;0.82;;;6.70;99.90;;;;;;4968605;28;20038;-82
2024/03/06 06:20:15;;;;;;;1.55;0.73;;;6.70;99.90;;;;;;4980539;28;20548;-81
2024/03/06 06:22:41;;;;;;;2.22;0.70;;;6.70;99.90;;;;;;4975783;28;20026;-81
2024/03/06 06:25:07;;;;;;;2.50;0.80;;;6.60;99.90;;;;;;4972216;28;21049;-81
2024/03/06 06:27:33;;;;;;;3.10;0.65;;;6.60;99.90;;;;;;4972135;28;20034;-85
2024/03/06 06:29:59;;;;;;;1.23;0.40;;;6.60;99.90;;;;;;4974597;28;20685;-82
2024/03/06 06:32:25;;;;;;;1.73;0.70;;;6.60;99.90;;;;;;4975192;28;20437;-81
2024/03/06 06:34:51;;;;;;;2.13;0.75;;;6.70;99.90;;;;;;4970771;28;20543;-82
2024/03/06 06:37:19;;;;;;;0.73;0.40;;;6.70;99.90;;;;;;4973775;28;20026;-83
2024/03/06 06:39:45;;;;;;;0.85;0.30;;;6.70;99.90;;;;;;4963064;28;20068;-83
2024/03/06 06:42:11;;;;;;;1.48;0.50;;;6.70;99.90;;;;;;4966738;28;20105;-82
2024/03/06 06:44:37;;;;;;;1.33;0.65;;;6.60;99.90;;;;;;4969269;28;20046;-83
2024/03/06 06:47:02;;;;;;;3.80;0.75;;;6.50;99.90;;;;;;4967881;28;20086;-83
2024/03/06 06:49:28;;;;;;;0.98;0.40;;;6.60;99.90;;;;;;4974436;28;20416;-82
2024/03/06 06:51:54;;;;;;;0.88;0.40;;;6.70;99.90;;;;;;4974421;28;20031;-82
2024/03/06 06:54:19;;;;;;;2.15;0.63;;;6.80;99.90;;;;;;4974321;28;21168;-82
2024/03/06 06:56:45;;;;;;;0.90;0.30;;;6.90;99.90;;;;;;4972703;28;20565;-83
2024/03/06 06:59:13;;;;;;;0.22;0.20;;;6.80;99.90;;;;;;4968841;28;20566;-83
2024/03/06 07:01:40;;;;;;;1.38;0.63;;;6.90;99.90;;;;;;4971810;28;20038;-87
2024/03/06 07:04:06;;;;;;;0.68;0.35;;;7.00;99.90;;;;;;4970838;28;20692;-82
2024/03/06 07:06:32;;;;;;;3.53;0.50;;;7.20;99.90;;;;;;4965870;28;20041;-84
2024/03/06 07:08:57;;;;;;;3.88;1.13;;;7.20;99.90;;;;;;4970881;28;20038;-82
2024/03/06 07:11:23;;;;;;;1.17;0.50;;;7.20;99.90;;;;;;4970298;28;20120;-83
2024/03/06 07:13:49;;;;;;;0.80;0.40;;;7.10;99.90;;;;;;4968214;28;20046;-81
2024/03/06 07:16:15;;;;;;;0.90;0.28;;;7.10;99.90;;;;;;4979784;28;20689;-83
2024/03/06 07:18:41;;;;;;;0.93;0.43;;;7.20;99.90;;;;;;4973702;28;20040;-81
2024/03/06 07:21:07;;;;;;;0.63;0.28;;;7.20;99.90;;;;;;4968927;28;20046;-82
2024/03/06 07:23:33;;;;;;;1.48;0.50;;;7.30;99.90;;;;;;4970787;28;20038;-81
2024/03/06 07:25:59;;;;;;;1.25;0.45;;;7.10;99.90;;;;;;4972659;28;20898;-81
2024/03/06 07:28:25;;;;;;;0.73;0.30;;;7.00;99.90;;;;;;4972922;28;20133;-81
2024/03/06 07:30:51;;;;;;;0.65;0.30;;;7.00;99.90;;;;;;4973328;28;20058;-82
2024/03/06 07:33:17;;;;;;;0.28;0.10;;;7.00;99.90;;;;;;4971741;28;20035;-81
2024/03/06 07:35:42;;;;;;;1.70;0.73;;;7.00;99.90;;;;;;4972953;28;20501;-82
2024/03/06 07:38:08;;;;;;;0.45;0.30;;;7.10;99.90;;;;;;4972468;28;20530;-81
2024/03/06 07:40:34;;;;;;;1.08;0.50;;;7.10;99.90;;;;;;4972656;28;20060;-81
2024/03/06 07:42:59;;;;;;;1.67;0.65;;;7.30;99.90;;;;;;4972479;28;20034;-82
2024/03/06 07:45:26;;;;;;;0.93;0.50;;;7.20;99.90;;;;;;4972047;28;20030;-80
2024/03/06 07:47:52;;;;;;;1.02;0.43;;;7.20;99.90;;;;;;4972495;28;20030;-80
2024/03/06 07:50:18;;;;;;;0.70;0.32;;;7.20;99.90;;;;;;4972209;28;20557;-80
2024/03/06 07:52:47;;;;;;;1.15;0.40;;;7.30;99.90;;;;;;4971389;28;20036;-78
2024/03/06 07:55:13;;;;;;;1.25;0.50;;;7.40;99.90;;;;;;4968030;28;20046;-82
2024/03/06 07:57:39;;;;;;;0.80;0.60;;;7.40;99.90;;;;;;4971736;28;20760;-81
2024/03/06 08:00:14;;;;;;;2.25;0.98;;;7.40;99.90;;;;;;4971931;28;20065;-82
2024/03/06 08:02:42;;;;;;;2.65;1.15;;;7.30;99.90;;;;;;4971610;28;20050;-81
2024/03/06 08:05:12;;;;;;;2.75;0.95;;;7.30;99.90;;;;;;4971415;28;20034;-80
2024/03/06 08:07:41;;;;;;;1.38;0.75;;;7.30;99.90;;;;;;4967480;28;20026;-83
2024/03/06 08:10:14;;;;;;;1.67;0.80;;;7.50;99.90;;;;;;4970502;28;20050;-82
2024/03/06 08:12:44;;;;;;;1.83;0.90;;;7.70;99.90;;;;;;4971757;28;20038;-80
2024/03/06 08:15:11;;;;;;;3.75;1.15;;;7.70;99.90;;;;;;4969211;28;20038;-80
2024/03/06 08:17:39;;;;;;;3.80;0.80;;;7.80;99.90;;;;;;4973519;28;20035;-80
2024/03/06 08:20:07;;;;;;;2.88;1.42;;;7.80;99.90;;;;;;4976535;28;20492;-81
2024/03/06 08:22:38;;;;;;;3.92;0.90;;;7.70;99.90;;;;;;4975209;28;20034;-80
2024/03/06 08:25:13;;;;;;;2.58;0.90;;;7.80;99.90;;;;;;4974630;28;20030;-81
2024/03/06 08:27:42;;;;;;;1.58;0.60;;;7.90;99.90;;;;;;4973009;28;20042;-82
2024/03/06 08:30:08;;;;;;;1.35;0.73;;;7.90;99.90;;;;;;4975253;28;20038;-80
2024/03/06 08:32:35;;;;;;;1.90;0.80;;;8.10;99.90;;;;;;4974629;28;20556;-80
2024/03/06 08:35:13;;;;;;;1.55;0.90;;;8.10;99.90;;;;;;4975092;28;20134;-80
2024/03/06 08:37:40;;;;;;;1.95;0.70;;;8.20;99.90;;;;;;4973758;28;21415;-81
2024/03/06 08:40:17;;;;;;;1.83;0.60;;;8.20;99.90;;;;;;4978469;28;20050;-79
2024/03/06 08:42:49;;;;;;;2.28;0.47;;;8.30;99.90;;;;;;4977765;28;20031;-82
2024/03/06 08:45:18;;;;;;;1.20;0.65;;;8.40;99.90;;;;;;4977872;28;20029;-82
2024/03/06 08:47:45;;;;;;;1.25;0.57;;;8.50;99.90;;;;;;4979037;28;20057;-80
2024/03/06 08:50:11;;;;;;;1.40;0.60;;;8.50;99.90;;;;;;4979501;28;20041;-80
2024/03/06 08:52:38;;;;;;;2.85;1.38;;;8.60;99.90;;;;;;4978765;28;20041;-81
2024/03/06 08:55:04;;;;;;;1.25;0.65;;;8.80;99.90;;;;;;4976437;28;20403;-80
2024/03/06 08:57:31;;;;;;;1.27;0.63;;;8.70;99.90;;;;;;4978553;28;20026;-80
2024/03/06 08:59:57;;;;;;;1.33;0.50;;;8.70;99.90;;;;;;4979156;28;20157;-80
2024/03/06 09:02:23;;;;;;;2.60;1.00;;;8.70;99.90;;;;;;4978993;28;20069;-81
2024/03/06 09:04:51;;;;;;;1.75;0.70;;;8.50;99.90;;;;;;4976689;28;20117;-82
2024/03/06 09:07:17;;;;;;;2.55;0.90;;;8.40;99.90;;;;;;4978784;28;20508;-81
2024/03/06 09:09:43;;;;;;;2.50;0.80;;;8.50;99.90;;;;;;4978800;28;20034;-82
2024/03/06 09:12:10;;;;;;;2.78;1.40;;;8.70;99.90;;;;;;4979100;28;20040;-81
2024/03/06 09:14:37;;;;;;;4.40;1.92;;;9.00;99.90;;;;;;4977574;28;21062;-82
2024/03/06 09:17:03;;;;;;;3.35;1.40;;;9.20;99.90;;;;;;4978619;28;20058;-81
2024/03/06 09:19:30;;;;;;;3.08;1.80;;;9.00;99.90;;;;;;4975391;28;20030;-82
2024/03/06 09:21:56;;;;;;;3.30;1.10;;;9.00;99.90;;;;;;4975763;28;20049;-82
2024/03/06 09:24:23;;;;;;;2.40;0.90;;;9.20;99.90;;;;;;4976921;28;20030;-81
2024/03/06 09:26:49;;;;;;;2.13;0.80;;;9.10;99.90;;;;;;4979080;28;20038;-82
2024/03/06 09:29:15;;;;;;;1.98;0.52;;;9.30;99.90;;;;;;4977947;28;20385;-82
2024/03/06 09:31:42;;;;;;;5.72;1.95;;;9.50;99.90;;;;;;4978417;28;20093;-82
2024/03/06 09:34:10;;;;;;;6.85;1.77;;;9.60;99.90;;;;;;4975663;28;20562;-82
2024/03/06 09:36:35;;;;;;;6.85;2.65;;;9.60;99.90;;;;;;4977866;28;20030;-82
2024/03/06 09:39:04;;;;;;;7.57;3.25;;;9.70;99.90;;;;;;4977486;28;20033;-82
2024/03/06 09:41:30;;;;;;;3.15;1.25;;;9.70;99.90;;;;;;4977827;28;20045;-83
2024/03/06 09:43:56;;;;;;;1.60;0.77;;;9.70;99.90;;;;;;4976583;28;20034;-81
2024/03/06 09:46:22;;;;;;;10.27;5.47;;;9.80;99.90;;;;;;4977738;28;20033;-80
2024/03/06 09:48:49;;;;;;;4.30;2.10;;;9.80;99.90;;;;;;4977307;28;20084;-81
2024/03/06 09:51:14;;;;;;;6.43;3.63;;;9.90;99.90;;;;;;4978157;28;20130;-82
2024/03/06 09:53:43;;;;;;;3.95;1.58;;;9.90;99.90;;;;;;4975982;28;20026;-81
2024/03/06 09:56:09;;;;;;;3.03;1.00;;;10.00;99.90;;;;;;4978354;28;20030;-82
2024/03/06 09:58:38;;;;;;;2.75;0.98;;;9.90;99.90;;;;;;4977831;28;20188;-82
2024/03/06 10:01:07;;;;;;;2.33;0.82;;;10.00;99.90;;;;;;4977366;28;20046;-82
2024/03/06 10:03:33;;;;;;;2.55;1.00;;;9.90;99.90;;;;;;4976373;28;20037;-82
2024/03/06 10:05:59;;;;;;;2.28;0.98;;;10.00;99.90;;;;;;4977599;28;20188;-82
2024/03/06 10:08:26;;;;;;;2.05;0.93;;;10.00;99.90;;;;;;4977021;28;20893;-80
2024/03/06 10:10:52;;;;;;;2.63;1.15;;;10.00;99.90;;;;;;4976924;28;20133;-81
2024/03/06 10:13:17;;;;;;;2.92;0.73;;;10.10;99.90;;;;;;4975126;28;20044;-82
2024/03/06 10:16:00;;;;;;;2.42;0.80;;;10.10;99.90;;;;;;4976228;28;20461;-82
2024/03/06 10:18:28;;;;;;;3.70;1.05;;;10.10;99.90;;;;;;4976314;28;20030;-80
2024/03/06 10:20:54;;;;;;;2.60;1.00;;;10.10;99.90;;;;;;4975768;28;20053;-81
2024/03/06 10:23:20;;;;;;;1.92;0.60;;;10.30;99.90;;;;;;4976016;28;20088;-79
2024/03/06 10:25:50;;;;;;;1.58;0.65;;;10.30;99.90;;;;;;4974667;28;20035;-81
2024/03/06 10:28:19;;;;;;;1.92;0.70;;;10.40;99.90;;;;;;4976201;28;20550;-82
2024/03/06 10:30:45;;;;;;;1.25;0.68;;;10.60;99.90;;;;;;4977441;28;20069;-82
2024/03/06 10:33:18;;;;;;;2.03;0.80;;;10.40;99.90;;;;;;4976946;28;20066;-83
2024/03/06 10:35:46;;;;;;;2.33;1.13;;;10.20;99.90;;;;;;4973128;28;20070;-82
2024/03/06 10:38:12;;;;;;;1.83;0.90;;;10.30;99.90;;;;;;4974155;28;20039;-82
2024/03/06 10:40:39;;;;;;;2.33;1.05;;;10.30;99.90;;;;;;4975514;28;20030;-82
2024/03/06 10:43:07;;;;;;;2.80;0.82;;;10.30;99.90;;;;;;4977301;28;20060;-83
2024/03/06 10:45:42;;;;;;;1.23;0.60;;;10.50;99.90;;;;;;4976548;28;20034;-83
2024/03/06 10:48:11;;;;;;;1.88;0.80;;;10.60;99.90;;;;;;4975276;28;20022;-83
2024/03/06 10:50:40;;;;;;;1.58;0.70;;;10.80;99.90;;;;;;4977153;28;20034;-83
2024/03/06 10:53:10;;;;;;;2.42;0.73;;;10.90;99.90;;;;;;4976695;28;20057;-83
2024/03/06 10:55:36;;;;;;;2.80;0.70;;;11.10;99.90;;;;;;4976983;28;20034;-83
2024/03/06 10:58:08;;;;;;;1.65;0.68;;;11.10;99.90;;;;;;4975921;28;20550;-83
2024/03/06 11:00:37;;;;;;;1.67;0.70;;;11.00;99.90;;;;;;4975333;28;20038;-83
2024/03/06 11:03:08;;;;;;;1.35;0.73;;;11.10;99.90;;;;;;4975298;28;20041;-82
2024/03/06 11:05:41;;;;;;;1.73;0.80;;;11.30;99.90;;;;;;4975745;28;21547;-82
2024/03/06 11:08:07;;;;;;;1.50;0.70;;;11.70;99.90;;;;;;4973461;28;20022;-82
2024/03/06 11:10:41;;;;;;;2.55;0.57;;;11.80;99.90;;;;;;4975336;28;20575;-83
2024/03/06 11:13:25;;;;;;;0.90;0.40;;;11.70;99.90;;;;;;4977219;28;20392;-82
2024/03/06 11:15:53;;;;;;;2.90;0.43;;;11.60;99.90;;;;;;4976989;28;20027;-82
2024/03/06 11:18:36;;;;;;;1.23;0.60;;;11.20;99.90;;;;;;4975277;28;20042;-83
2024/03/06 11:21:08;;;;;;;0.63;0.25;;;11.20;99.90;;;;;;4976810;28;20030;-82
2024/03/06 11:23:34;;;;;;;2.08;0.52;;;11.30;99.90;;;;;;4976083;28;20026;-82
2024/03/06 11:26:04;;;;;;;1.25;0.60;;;11.40;99.90;;;;;;4976631;28;20045;-82
2024/03/06 11:28:34;;;;;;;1.38;0.60;;;11.80;99.90;;;;;;4975073;28;20399;-82
2024/03/06 11:31:05;;;;;;;1.15;0.68;;;11.90;99.90;;;;;;4973811;28;20030;-82
2024/03/06 11:33:37;;;;;;;1.02;0.47;;;11.90;99.90;;;;;;4974892;28;20058;-82
2024/03/06 11:36:22;;;;;;;1.25;0.75;;;12.10;99.90;;;;;;4975496;28;20038;-82
2024/03/06 11:38:52;;;;;;;1.65;0.60;;;11.80;99.90;;;;;;4974633;28;20041;-82
2024/03/06 11:41:20;;;;;;;0.90;0.30;;;11.60;99.90;;;;;;4976534;28;20105;-82
2024/03/06 11:43:48;;;;;;;1.23;0.43;;;11.60;99.90;;;;;;4976144;28;20066;-83
2024/03/06 11:46:14;;;;;;;1.55;0.30;;;11.90;99.90;;;;;;4976061;28;20113;-82
2024/03/06 11:48:40;;;;;;;0.30;0.20;;;12.20;99.90;;;;;;4974998;28;20042;-82
2024/03/06 11:51:06;;;;;;;0.10;0.10;;;12.50;99.90;;;;;;4974870;28;20030;-82
2024/03/06 11:53:37;;;;;;;1.40;0.32;;;12.50;99.90;;;;;;4978385;28;20034;-83
2024/03/06 11:56:07;;;;;;;1.50;0.30;;;12.60;99.90;;;;;;4979529;28;20042;-83
2024/03/06 11:58:33;;;;;;;1.08;0.43;;;12.70;99.90;;;;;;4976325;28;20092;-83
2024/03/06 12:01:01;;;;;;;0.45;0.30;;;12.60;99.90;;;;;;4975105;28;20670;-83
2024/03/06 12:03:27;;;;;;;0.70;0.30;;;12.40;99.90;;;;;;4978927;28;20031;-83
2024/03/06 12:05:53;;;;;;;0.68;0.30;;;12.40;99.90;;;;;;4976259;28;20046;-83
2024/03/06 12:08:19;;;;;;;0.60;0.10;;;12.50;99.90;;;;;;4973186;28;20042;-82
2024/03/06 12:10:47;;;;;;;0.57;0.20;;;12.70;99.90;;;;;;4978495;28;20056;-83
2024/03/06 12:13:13;;;;;;;1.23;0.43;;;13.10;99.90;;;;;;4971184;28;20035;-83
2024/03/06 12:15:42;;;;;;;1.73;0.55;;;12.70;99.90;;;;;;4979259;28;20026;-82
2024/03/06 12:18:07;;;;;;;1.20;0.40;;;12.50;99.90;;;;;;4976092;28;20038;-82
2024/03/06 12:20:33;;;;;;;0.10;0.10;;;12.50;99.90;;;;;;4977299;28;20034;-82
2024/03/06 12:22:59;;;;;;;0.95;0.30;;;12.70;99.90;;;;;;4978418;28;20049;-80
2024/03/06 12:25:26;;;;;;;1.85;0.10;;;12.90;99.90;;;;;;4978852;28;21150;-81
2024/03/06 12:27:54;;;;;;;0.75;0.20;;;13.10;99.90;;;;;;4977405;28;20034;-81
2024/03/06 12:30:22;;;;;;;1.25;0.47;;;13.00;99.90;;;;;;4975270;28;20038;-81
2024/03/06 12:33:04;;;;;;;1.05;0.40;;;12.70;99.90;;;;;;4975173;28;20030;-82
2024/03/06 12:35:31;;;;;;;1.10;0.45;;;12.80;99.90;;;;;;4975000;28;20114;-81
2024/03/06 12:37:57;;;;;;;1.42;0.57;;;12.70;99.90;;;;;;4974596;28;20041;-83
2024/03/06 12:40:23;;;;;;;0.20;0.10;;;12.60;99.90;;;;;;4973459;28;20034;-81
2024/03/06 12:42:51;;;;;;;0.70;0.30;;;12.50;99.90;;;;;;4974708;28;20415;-83
2024/03/06 12:45:18;;;;;;;0.40;0.20;;;12.60;99.90;;;;;;4974526;28;20030;-83
2024/03/06 12:47:48;;;;;;;1.42;0.22;;;12.70;99.90;;;;;;4974597;28;20041;-82
2024/03/06 12:50:14;;;;;;;0.65;0.35;;;12.90;99.90;;;;;;4968873;28;20912;-80
2024/03/06 12:52:41;;;;;;;0.75;0.40;;;12.70;99.90;;;;;;4974405;28;20174;-82
2024/03/06 12:55:07;;;;;;;0.77;0.28;;;12.70;99.90;;;;;;4974548;28;20455;-80